createdAt,value
2019-02-28T00:01:11.978Z,12.67
2019-02-28T00:03:40.717Z,12.20
2019-02-28T00:06:12.662Z,12.37
2019-02-28T00:08:44.419Z,13.00
2019-02-28T00:11:13.845Z,12.20
2019-02-28T00:13:43.274Z,12.90
2019-02-28T00:16:12.756Z,12.83
2019-02-28T00:18:42.205Z,12.87
2019-02-28T00:21:11.906Z,12.87
2019-02-28T00:23:41.340Z,12.93
2019-02-28T00:26:11.650Z,13.27
2019-02-28T00:28:41.762Z,11.70
2019-02-28T00:31:15.315Z,11.83
2019-02-28T00:33:42.484Z,12.50
2019-02-28T00:36:11.909Z,12.37
2019-02-28T00:38:41.349Z,12.50
2019-02-28T00:41:10.796Z,12.70
2019-02-28T00:43:40.212Z,12.43
2019-02-28T00:46:09.994Z,12.50
2019-02-28T00:48:40.347Z,12.00
2019-02-28T00:51:09.848Z,13.17
2019-02-28T00:53:39.340Z,13.07
2019-02-28T00:56:09.916Z,13.20
2019-02-28T00:58:39.332Z,12.83
2019-02-28T01:01:11.573Z,12.70
2019-02-28T01:03:40.043Z,13.73
2019-02-28T01:06:10.507Z,13.80
2019-02-28T01:08:40.103Z,14.33
2019-02-28T01:11:13.254Z,14.37
2019-02-28T01:13:41.637Z,14.57
2019-02-28T01:16:11.052Z,15.23
2019-02-28T01:18:40.924Z,14.60
2019-02-28T01:21:10.479Z,16.47
2019-02-28T01:23:39.993Z,15.27
2019-02-28T01:26:11.725Z,17.10
2019-02-28T01:28:40.556Z,17.73
2019-02-28T01:31:11.573Z,16.93
2019-02-28T01:33:41.118Z,18.97
2019-02-28T01:36:12.283Z,19.00
2019-02-28T01:38:41.702Z,19.07
2019-02-28T01:41:11.848Z,18.23
2019-02-28T01:43:41.415Z,19.07
2019-02-28T01:46:10.859Z,20.20
2019-02-28T01:48:40.278Z,19.03
2019-02-28T01:51:09.813Z,21.63
2019-02-28T01:53:39.233Z,22.53
2019-02-28T01:56:08.689Z,23.60
2019-02-28T01:58:38.117Z,25.90
2019-02-28T02:01:07.565Z,25.93
2019-02-28T02:03:37.009Z,26.80
2019-02-28T02:06:06.480Z,26.47
2019-02-28T02:08:37.799Z,26.87
2019-02-28T02:11:07.058Z,25.10
2019-02-28T02:13:37.400Z,26.90
2019-02-28T02:16:07.029Z,25.73
2019-02-28T02:18:40.319Z,24.80
2019-02-28T02:21:08.560Z,25.33
2019-02-28T02:23:38.019Z,24.83
2019-02-28T02:26:08.429Z,25.93
2019-02-28T02:28:38.669Z,25.57
2019-02-28T02:31:08.105Z,26.77
2019-02-28T02:33:37.554Z,25.63
2019-02-28T02:36:07.045Z,26.23
2019-02-28T02:38:41.417Z,25.87
2019-02-28T02:41:07.615Z,25.80
2019-02-28T02:43:37.046Z,26.83
2019-02-28T02:46:06.483Z,26.67
2019-02-28T02:48:38.480Z,27.57
2019-02-28T02:51:10.625Z,27.63
2019-02-28T02:53:41.917Z,27.77
2019-02-28T02:56:09.472Z,28.30
2019-02-28T02:58:38.908Z,27.80
2019-02-28T03:01:08.468Z,27.77
2019-02-28T03:03:42.884Z,26.97
2019-02-28T03:06:13.557Z,28.60
2019-02-28T03:08:40.165Z,29.30
2019-02-28T03:11:09.621Z,29.40
2019-02-28T03:13:43.728Z,30.83
2019-02-28T03:16:10.262Z,31.83
2019-02-28T03:18:39.715Z,32.10
2019-02-28T03:21:10.204Z,33.23
2019-02-28T03:23:40.516Z,33.80
2019-02-28T03:26:10.048Z,33.33
2019-02-28T03:28:39.492Z,33.67
2019-02-28T03:31:14.124Z,34.73
2019-02-28T03:33:40.135Z,34.83
2019-02-28T03:36:09.598Z,35.10
2019-02-28T03:38:39.024Z,37.33
2019-02-28T03:41:16.060Z,37.67
2019-02-28T03:43:43.759Z,38.90
2019-02-28T03:46:11.603Z,38.67
2019-02-28T03:48:41.197Z,37.87
2019-02-28T03:51:10.717Z,39.17
2019-02-28T03:53:40.144Z,39.03
2019-02-28T03:56:14.308Z,38.03
2019-02-28T03:58:42.938Z,39.57
2019-02-28T04:01:12.278Z,41.50
2019-02-28T04:03:41.701Z,40.37
2019-02-28T04:06:11.262Z,41.10
2019-02-28T04:08:40.707Z,40.30
2019-02-28T04:11:10.130Z,39.20
2019-02-28T04:13:39.618Z,41.23
2019-02-28T04:16:10.085Z,42.30
2019-02-28T04:18:44.366Z,41.17
2019-02-28T04:21:12.194Z,43.07
2019-02-28T04:23:41.708Z,42.00
2019-02-28T04:26:11.137Z,42.40
2019-02-28T04:28:40.700Z,41.13
2019-02-28T04:31:10.124Z,42.10
2019-02-28T04:33:39.579Z,42.93
2019-02-28T04:36:09.007Z,42.60
2019-02-28T04:38:38.453Z,42.87
2019-02-28T04:41:07.905Z,44.60
2019-02-28T04:43:37.383Z,43.40
2019-02-28T04:46:06.899Z,42.03
2019-02-28T04:48:36.320Z,43.87
2019-02-28T04:51:06.573Z,44.00
2019-02-28T04:53:36.814Z,42.77
2019-02-28T04:56:11.170Z,44.17
2019-02-28T04:58:40.357Z,42.53
2019-02-28T05:01:09.156Z,42.77
2019-02-28T05:03:40.004Z,42.83
2019-02-28T05:06:09.467Z,42.70
2019-02-28T05:08:39.794Z,42.13
2019-02-28T05:11:09.232Z,43.40
2019-02-28T05:13:41.050Z,43.07
2019-02-28T05:16:12.277Z,40.27
2019-02-28T05:18:40.927Z,42.10
2019-02-28T05:21:10.384Z,41.50
2019-02-28T05:23:39.820Z,41.27
2019-02-28T05:26:09.242Z,40.60
2019-02-28T05:28:41.126Z,41.47
2019-02-28T05:31:10.962Z,43.00
2019-02-28T05:33:42.012Z,42.00
2019-02-28T05:36:11.528Z,41.87
2019-02-28T05:38:42.100Z,43.03
2019-02-28T05:41:12.133Z,42.73
2019-02-28T05:43:42.690Z,44.33
2019-02-28T05:46:12.170Z,41.70
2019-02-28T05:48:43.132Z,43.77
2019-02-28T05:51:12.556Z,44.77
2019-02-28T05:53:42.732Z,42.63
2019-02-28T05:56:12.305Z,43.70
2019-02-28T05:58:42.828Z,44.17
2019-02-28T06:01:12.596Z,42.70
2019-02-28T06:03:42.113Z,42.67
2019-02-28T06:06:11.541Z,43.07
2019-02-28T06:08:40.980Z,42.73
2019-02-28T06:11:10.408Z,45.70
2019-02-28T06:13:39.863Z,45.23
2019-02-28T06:16:12.395Z,45.90
2019-02-28T06:18:40.411Z,45.13
2019-02-28T06:21:10.411Z,45.30
2019-02-28T06:23:41.624Z,44.77
2019-02-28T06:26:11.141Z,45.03
2019-02-28T06:28:40.570Z,46.17
2019-02-28T06:31:10.019Z,46.33
2019-02-28T06:33:39.437Z,45.57
2019-02-28T06:36:08.885Z,45.43
2019-02-28T06:38:38.313Z,46.30
2019-02-28T06:41:08.695Z,46.50
2019-02-28T06:43:38.165Z,46.83
2019-02-28T06:46:08.524Z,48.40
2019-02-28T06:48:38.708Z,48.93
2019-02-28T06:51:08.166Z,47.47
2019-02-28T06:53:38.837Z,49.03
2019-02-28T06:56:08.358Z,49.10
2019-02-28T06:58:37.800Z,49.03
2019-02-28T07:01:07.320Z,48.60
2019-02-28T07:03:38.806Z,49.80
2019-02-28T07:06:07.877Z,48.73
2019-02-28T07:08:37.326Z,47.47
2019-02-28T07:11:07.939Z,48.43
2019-02-28T07:13:39.938Z,48.67
2019-02-28T07:16:08.522Z,50.37
2019-02-28T07:18:38.083Z,48.67
2019-02-28T07:21:08.610Z,51.90
2019-02-28T07:23:38.090Z,49.37
2019-02-28T07:26:07.538Z,51.17
2019-02-28T07:28:37.717Z,50.70
2019-02-28T07:31:07.370Z,51.80
2019-02-28T07:33:36.819Z,48.93
2019-02-28T07:36:09.537Z,52.83
2019-02-28T07:38:37.483Z,51.80
2019-02-28T07:41:08.006Z,50.90
2019-02-28T07:43:37.830Z,51.70
2019-02-28T07:46:08.743Z,51.63
2019-02-28T07:48:38.385Z,51.93
2019-02-28T07:51:07.831Z,50.03
2019-02-28T07:53:37.280Z,49.93
2019-02-28T07:56:07.784Z,50.07
2019-02-28T07:58:37.394Z,50.70
2019-02-28T08:01:06.959Z,51.33
2019-02-28T08:03:36.402Z,51.50
2019-02-28T08:06:05.901Z,52.07
2019-02-28T08:08:35.424Z,55.73
2019-02-28T08:11:05.051Z,57.17
2019-02-28T08:13:37.880Z,52.93
2019-02-28T08:16:05.835Z,49.53
2019-02-28T08:18:35.255Z,50.83
2019-02-28T08:21:08.807Z,51.70
2019-02-28T08:23:38.652Z,49.33
2019-02-28T08:26:08.171Z,51.10
2019-02-28T08:28:37.589Z,50.27
2019-02-28T08:31:07.569Z,49.07
2019-02-28T08:33:37.005Z,48.93
2019-02-28T08:36:11.568Z,49.37
2019-02-28T08:38:37.793Z,47.40
2019-02-28T08:41:07.203Z,47.33
2019-02-28T08:43:36.715Z,48.17
2019-02-28T08:46:09.662Z,47.53
2019-02-28T08:48:37.415Z,48.17
2019-02-28T08:51:08.550Z,47.57
2019-02-28T08:53:37.971Z,47.83
2019-02-28T08:56:07.561Z,48.30
2019-02-28T08:58:37.763Z,48.67
2019-02-28T09:01:11.345Z,46.73
2019-02-28T09:03:42.547Z,46.60
2019-02-28T09:06:12.133Z,47.07
2019-02-28T09:08:41.641Z,48.03
2019-02-28T09:11:11.541Z,45.93
2019-02-28T09:13:43.007Z,45.77
2019-02-28T09:16:12.184Z,46.03
2019-02-28T09:18:41.629Z,49.07
2019-02-28T09:21:11.158Z,45.70
2019-02-28T09:23:40.720Z,47.63
2019-02-28T09:26:10.205Z,46.33
2019-02-28T09:28:39.651Z,47.93
2019-02-28T09:31:10.852Z,45.93
2019-02-28T09:33:40.454Z,47.57
2019-02-28T09:36:09.908Z,47.97
2019-02-28T09:38:42.351Z,46.70
2019-02-28T09:41:12.170Z,46.10
2019-02-28T09:43:41.613Z,45.97
2019-02-28T09:46:12.502Z,43.03
2019-02-28T09:48:43.301Z,46.10
2019-02-28T09:51:12.789Z,42.93
2019-02-28T09:53:42.278Z,42.93
2019-02-28T09:56:11.743Z,43.73
2019-02-28T09:58:41.164Z,44.70
2019-02-28T10:01:10.924Z,44.83
2019-02-28T10:03:40.500Z,44.03
2019-02-28T10:06:09.897Z,42.07
2019-02-28T10:08:39.337Z,43.47
2019-02-28T10:11:08.774Z,43.07
2019-02-28T10:13:38.209Z,43.23
2019-02-28T10:16:13.616Z,41.13
2019-02-28T10:18:41.759Z,41.00
2019-02-28T10:21:11.220Z,42.37
2019-02-28T10:23:40.718Z,42.37
2019-02-28T10:26:10.243Z,42.03
2019-02-28T10:28:39.691Z,41.63
2019-02-28T10:31:09.212Z,42.87
2019-02-28T10:33:38.661Z,40.87
2019-02-28T10:36:09.273Z,41.80
2019-02-28T10:38:39.241Z,42.47
2019-02-28T10:41:08.720Z,41.60
2019-02-28T10:43:38.255Z,42.93
2019-02-28T10:46:07.692Z,43.93
2019-02-28T10:48:41.851Z,41.00
2019-02-28T10:51:14.099Z,41.03
2019-02-28T10:53:40.191Z,42.63
2019-02-28T10:56:10.749Z,41.13
2019-02-28T10:58:40.270Z,41.50
2019-02-28T11:01:10.868Z,40.53
2019-02-28T11:03:40.364Z,40.53
2019-02-28T11:06:09.885Z,40.67
2019-02-28T11:08:39.453Z,39.93
2019-02-28T11:11:11.230Z,41.27
2019-02-28T11:13:41.475Z,40.90
2019-02-28T11:16:11.079Z,39.90
2019-02-28T11:18:41.914Z,39.40
2019-02-28T11:21:12.678Z,41.50
2019-02-28T11:23:42.241Z,40.07
2019-02-28T11:26:12.736Z,40.37
2019-02-28T11:28:42.164Z,40.17
2019-02-28T11:31:11.688Z,40.37
2019-02-28T11:33:41.491Z,39.83
2019-02-28T11:36:11.031Z,37.93
2019-02-28T11:38:40.633Z,37.83
2019-02-28T11:41:12.249Z,38.90
2019-02-28T11:43:41.541Z,37.47
2019-02-28T11:46:11.037Z,37.90
2019-02-28T11:48:40.469Z,37.37
2019-02-28T11:51:10.432Z,37.77
2019-02-28T11:53:40.563Z,36.97
2019-02-28T11:56:10.275Z,38.87
2019-02-28T11:58:39.786Z,37.63
2019-02-28T12:01:11.460Z,35.77
2019-02-28T12:03:41.085Z,37.23
2019-02-28T12:06:10.650Z,36.07
2019-02-28T12:08:41.548Z,36.47
2019-02-28T12:11:11.378Z,36.17
2019-02-28T12:13:40.814Z,37.17
2019-02-28T12:16:10.334Z,38.73
2019-02-28T12:18:40.872Z,37.73
2019-02-28T12:21:10.810Z,37.33
2019-02-28T12:23:44.015Z,37.20
2019-02-28T12:26:38.040Z,37.97
2019-02-28T12:29:09.398Z,36.67
2019-02-28T12:31:39.425Z,36.10
2019-02-28T12:34:08.904Z,37.63
2019-02-28T12:36:38.632Z,37.00
2019-02-28T12:39:08.556Z,36.80
2019-02-28T12:41:40.079Z,36.93
2019-02-28T12:44:12.349Z,36.80
2019-02-28T12:46:43.434Z,36.30
2019-02-28T12:49:12.907Z,35.30
2019-02-28T12:51:42.426Z,35.83
2019-02-28T12:54:11.945Z,35.80
2019-02-28T12:56:41.584Z,35.20
2019-02-28T12:59:11.223Z,35.47
2019-02-28T13:01:40.817Z,36.23
2019-02-28T13:04:10.314Z,36.30
2019-02-28T13:06:39.784Z,36.43
2019-02-28T13:09:09.196Z,36.43
2019-02-28T13:11:38.728Z,36.80
2019-02-28T13:14:08.245Z,34.50
2019-02-28T13:16:37.855Z,36.10
2019-02-28T13:19:08.820Z,37.07
2019-02-28T13:21:38.465Z,37.73
2019-02-28T13:24:09.582Z,39.50
2019-02-28T13:26:39.079Z,39.03
2019-02-28T13:29:10.085Z,38.77
2019-02-28T13:31:40.863Z,37.63
2019-02-28T13:34:10.911Z,37.60
2019-02-28T13:36:40.389Z,38.60
2019-02-28T13:39:12.806Z,37.50
2019-02-28T13:41:42.262Z,36.80
2019-02-28T13:44:11.934Z,39.47
2019-02-28T13:46:41.461Z,39.00
2019-02-28T13:49:12.117Z,39.37
2019-02-28T13:51:42.725Z,38.50
2019-02-28T13:54:12.280Z,39.27
2019-02-28T13:56:41.702Z,38.13
2019-02-28T13:59:12.399Z,38.93
2019-02-28T14:01:41.914Z,40.53
2019-02-28T14:04:11.416Z,36.97
2019-02-28T14:06:40.824Z,36.73
2019-02-28T14:09:10.431Z,37.63
2019-02-28T14:11:41.906Z,38.83
2019-02-28T14:14:11.391Z,38.60
2019-02-28T14:16:40.894Z,37.47
2019-02-28T14:19:10.497Z,36.33
2019-02-28T14:21:40.095Z,37.47
2019-02-28T14:24:09.627Z,36.63
2019-02-28T14:26:42.792Z,37.20
2019-02-28T14:29:11.627Z,35.37
2019-02-28T14:31:41.330Z,35.07
2019-02-28T14:34:10.932Z,38.20
2019-02-28T14:36:41.819Z,36.60
2019-02-28T14:39:13.403Z,36.73
2019-02-28T14:41:42.974Z,35.53
2019-02-28T14:44:13.470Z,35.80
2019-02-28T14:46:43.387Z,36.03
2019-02-28T14:49:13.704Z,38.13
2019-02-28T14:51:44.485Z,37.53
2019-02-28T14:54:14.156Z,37.60
2019-02-28T14:56:43.854Z,36.70
2019-02-28T14:59:13.419Z,36.93
2019-02-28T15:01:43.009Z,36.80
2019-02-28T15:04:12.516Z,36.63
2019-02-28T15:06:42.025Z,36.60
2019-02-28T15:09:17.915Z,36.47
2019-02-28T15:11:48.258Z,35.03
2019-02-28T15:14:18.756Z,34.47
2019-02-28T15:16:48.306Z,37.70
2019-02-28T15:19:18.000Z,35.63
2019-02-28T15:21:47.447Z,35.90
2019-02-28T15:24:16.896Z,35.80
2019-02-28T15:26:46.365Z,38.00
2019-02-28T15:29:20.202Z,35.90
2019-02-28T15:31:48.662Z,36.90
2019-02-28T15:34:18.097Z,36.60
2019-02-28T15:36:47.560Z,39.50
2019-02-28T15:39:17.361Z,38.40
2019-02-28T15:41:47.993Z,37.30
2019-02-28T15:44:18.992Z,38.10
2019-02-28T15:46:48.415Z,36.80
2019-02-28T15:49:18.047Z,37.83
2019-02-28T15:51:47.554Z,38.30
2019-02-28T15:54:17.093Z,37.83
2019-02-28T15:56:46.600Z,40.17
2019-02-28T15:59:16.200Z,37.87
2019-02-28T16:01:45.714Z,38.93
2019-02-28T16:04:15.531Z,39.40
2019-02-28T16:06:44.968Z,40.13
2019-02-28T16:09:18.793Z,39.20
2019-02-28T16:11:46.852Z,41.63
2019-02-28T16:14:18.016Z,40.70
2019-02-28T16:16:48.361Z,39.83
2019-02-28T16:19:18.835Z,41.00
2019-02-28T16:21:49.158Z,41.53
2019-02-28T16:24:18.616Z,39.73
2019-02-28T16:26:48.208Z,40.40
2019-02-28T16:29:20.634Z,42.47
2019-02-28T16:31:51.812Z,41.30
2019-02-28T16:34:21.747Z,43.03
2019-02-28T16:36:51.215Z,44.70
2019-02-28T16:39:20.718Z,42.57
2019-02-28T16:41:50.264Z,42.70
2019-02-28T16:44:22.707Z,41.53
2019-02-28T16:46:56.806Z,43.63
2019-02-28T16:49:28.067Z,45.87
2019-02-28T16:51:57.907Z,43.63
2019-02-28T16:54:27.924Z,45.03
2019-02-28T16:56:57.521Z,42.90
2019-02-28T16:59:31.708Z,43.23
2019-02-28T17:02:01.430Z,41.17
2019-02-28T17:04:30.928Z,43.60
2019-02-28T17:07:02.638Z,45.90
2019-02-28T17:09:33.457Z,44.13
2019-02-28T17:12:04.609Z,40.80
2019-02-28T17:14:34.279Z,40.47
2019-02-28T17:17:08.690Z,42.07
2019-02-28T17:19:38.721Z,41.40
2019-02-28T17:22:08.328Z,43.10
2019-02-28T17:24:38.021Z,41.60
2019-02-28T17:27:14.702Z,42.97
2019-02-28T17:29:50.639Z,42.23
2019-02-28T17:32:20.711Z,42.73
2019-02-28T17:34:50.367Z,47.60
2019-02-28T17:37:25.521Z,44.53
2019-02-28T17:39:53.530Z,45.47
2019-02-28T17:42:23.856Z,45.27
2019-02-28T17:44:59.607Z,40.83
2019-02-28T17:47:48.689Z,42.77
2019-02-28T17:50:34.931Z,43.00
2019-02-28T17:53:17.981Z,42.53
2019-02-28T17:56:22.851Z,44.77
2019-02-28T17:59:26.725Z,45.43
2019-02-28T18:02:32.777Z,46.40
2019-02-28T18:05:30.341Z,46.30
2019-02-28T18:08:32.280Z,47.90
2019-02-28T18:11:30.887Z,45.93
2019-02-28T18:14:15.479Z,45.53
2019-02-28T18:17:19.848Z,49.63
2019-02-28T18:20:13.633Z,48.20
2019-02-28T18:22:57.147Z,48.83
2019-02-28T18:25:57.089Z,52.80
2019-02-28T18:28:33.335Z,51.50
2019-02-28T18:31:14.356Z,51.57
2019-02-28T18:33:49.312Z,51.33
2019-02-28T18:36:21.895Z,52.93
2019-02-28T18:38:51.350Z,50.33
2019-02-28T18:41:20.868Z,51.30
2019-02-28T18:43:51.803Z,50.90
2019-02-28T18:46:21.263Z,50.77
2019-02-28T18:48:51.319Z,52.50
2019-02-28T18:51:25.062Z,51.57
2019-02-28T18:53:55.753Z,53.00
2019-02-28T18:56:27.052Z,52.53
2019-02-28T18:58:56.620Z,49.27
2019-02-28T19:01:26.220Z,50.17
2019-02-28T19:03:58.372Z,51.83
2019-02-28T19:06:29.422Z,48.93
2019-02-28T19:09:00.532Z,49.70
2019-02-28T19:11:32.360Z,48.40
2019-02-28T19:14:02.194Z,50.50
2019-02-28T19:16:31.650Z,47.90
2019-02-28T19:19:01.084Z,50.37
2019-02-28T19:21:30.680Z,49.80
2019-02-28T19:24:00.102Z,49.90
2019-02-28T19:26:29.563Z,50.63
2019-02-28T19:29:02.046Z,50.83
2019-02-28T19:31:31.738Z,55.33
2019-02-28T19:34:01.360Z,55.20
2019-02-28T19:36:32.676Z,55.80
2019-02-28T19:39:02.265Z,54.90
2019-02-28T19:41:33.494Z,52.97
2019-02-28T19:44:03.008Z,50.90
2019-02-28T19:46:32.549Z,53.80
2019-02-28T19:49:05.371Z,52.57
2019-02-28T19:51:34.881Z,52.10
2019-02-28T19:54:04.485Z,52.97
2019-02-28T19:56:33.918Z,53.37
2019-02-28T19:59:03.485Z,54.30
2019-02-28T20:01:34.002Z,57.20
2019-02-28T20:04:05.119Z,54.10
2019-02-28T20:06:34.719Z,54.57
2019-02-28T20:09:05.992Z,54.60
2019-02-28T20:11:37.395Z,54.67
2019-02-28T20:14:09.937Z,55.03
2019-02-28T20:16:41.129Z,57.30
2019-02-28T20:19:13.025Z,54.97
2019-02-28T20:21:42.804Z,52.50
2019-02-28T20:24:12.739Z,53.30
2019-02-28T20:26:42.579Z,54.47
2019-02-28T20:29:12.252Z,51.93
2019-02-28T20:31:41.813Z,53.47
2019-02-28T20:34:11.423Z,55.47
2019-02-28T20:36:40.999Z,55.37
2019-02-28T20:39:12.433Z,56.93
2019-02-28T20:41:45.963Z,55.17
2019-02-28T20:44:15.497Z,54.80
2019-02-28T20:46:45.185Z,54.23
2019-02-28T20:49:14.700Z,53.87
2019-02-28T20:51:54.749Z,53.77
2019-02-28T20:54:18.202Z,52.27
2019-02-28T20:56:47.734Z,54.90
2019-02-28T20:59:17.606Z,53.40
2019-02-28T21:01:48.205Z,52.30
2019-02-28T21:04:17.779Z,54.33
2019-02-28T21:06:50.312Z,57.47
2019-02-28T21:09:19.983Z,53.67
2019-02-28T21:11:49.607Z,55.00
2019-02-28T21:14:19.140Z,53.97
2019-02-28T21:16:49.495Z,56.20
2019-02-28T21:19:21.174Z,53.03
2019-02-28T21:21:51.794Z,54.60
2019-02-28T21:24:22.931Z,53.97
2019-02-28T21:26:52.386Z,57.60
2019-02-28T21:29:27.488Z,54.60
2019-02-28T21:31:57.003Z,59.17
2019-02-28T21:34:27.856Z,56.23
2019-02-28T21:36:59.416Z,56.53
2019-02-28T21:39:28.926Z,55.50
2019-02-28T21:42:00.064Z,57.53
2019-02-28T21:44:29.585Z,56.57
2019-02-28T21:47:05.883Z,54.47
2019-02-28T21:49:30.462Z,56.20
2019-02-28T21:52:00.058Z,57.93
2019-02-28T21:54:29.602Z,51.60
2019-02-28T21:56:59.196Z,54.07
2019-02-28T21:59:28.876Z,56.07
2019-02-28T22:01:58.528Z,61.77
2019-02-28T22:04:28.133Z,55.17
2019-02-28T22:06:57.711Z,56.30
2019-02-28T22:09:27.222Z,56.90
2019-02-28T22:11:56.812Z,57.03
2019-02-28T22:14:26.274Z,56.43
2019-02-28T22:16:55.776Z,57.07
2019-02-28T22:19:25.304Z,56.47
2019-02-28T22:21:54.815Z,55.03
2019-02-28T22:24:24.421Z,57.33
2019-02-28T22:26:53.948Z,60.70
2019-02-28T22:29:23.472Z,57.93
2019-02-28T22:31:57.798Z,57.97
2019-02-28T22:34:34.471Z,59.27
2019-02-28T22:37:04.213Z,55.53
2019-02-28T22:39:33.639Z,59.70
2019-02-28T22:42:03.225Z,59.67
2019-02-28T22:44:32.727Z,59.23
2019-02-28T22:47:02.183Z,58.43
2019-02-28T22:49:33.568Z,53.37
2019-02-28T22:52:02.852Z,56.70
2019-02-28T22:54:32.459Z,58.73
2019-02-28T22:57:01.916Z,56.73
2019-02-28T22:59:31.421Z,57.03
2019-02-28T23:02:01.101Z,60.73
2019-02-28T23:04:30.741Z,55.13
2019-02-28T23:07:00.251Z,57.23
2019-02-28T23:09:29.871Z,57.73
2019-02-28T23:11:59.297Z,58.80
2019-02-28T23:14:28.836Z,56.97
2019-02-28T23:16:59.965Z,55.70
2019-02-28T23:19:29.375Z,59.57
2019-02-28T23:22:01.843Z,58.87
2019-02-28T23:24:33.304Z,57.43
2019-02-28T23:27:18.635Z,62.23
2019-02-28T23:29:57.436Z,60.70
2019-02-28T23:32:35.688Z,62.17
2019-02-28T23:35:11.051Z,61.23
2019-02-28T23:37:40.495Z,62.70
2019-02-28T23:40:10.100Z,62.23
2019-02-28T23:42:39.589Z,62.10
2019-02-28T23:45:09.177Z,63.70
2019-02-28T23:47:38.610Z,63.57
2019-02-28T23:50:09.770Z,64.93
2019-02-28T23:52:39.219Z,60.70
2019-02-28T23:55:09.595Z,60.10
2019-02-28T23:57:39.046Z,60.03
